Main page
METAR-TAF:

METAR-TAF

Airports :

Koksijde Air Base

Koksijde, Belgium

latitude: 51-05N, longitude: 002-39E, elevation: 4 m

Current weather observation

The report was made 9 minutes ago, at 00:13 UTC
Wind 3 kt from the South/Southwest
Temperature 4°C
Humidity 87%
Pressure 1025 hPa
Visibility: 6000 m

METAR: EBFN 160013Z AUTO 20003KT 6000 NCD 04/02 Q1025 WHT

Time: 01:22 (00:22 UTC)

Forecast

The report was made 8 hours and 41 minutes ago, at 15:41 UTC
Forecast valid from 15 at 19 UTC to 16 at 07 UTC
Wind 8 kt from the South/Southwest
Visibility 10 km or more
Few clouds at a height of 23000 ft

TAF: EBFN 151541Z 1519/1607 20008KT 9999 FEW230

Weather observations and forecasts of more than 4000 airports (METAR and TAF reports).

The available stations are represented by yellow and red dots on the map.

Hover mouse over dot to see the name of the station.

Then click to see weather observations and forecasts.

To change the map : click on the green buttons with a black cross to zoom in, on the green button with a dash to zoom out, or on the green arrows for adjacent maps.


METAR-TAF: